Time;durP1;ratioP1;P1;durP2;ratioP2;P2;SDS_P1;SDS_P2;PMS_P1;PMS_P2;Temp;Humidity;BMP_temperature;BMP_pressure;BME280_temperature;BME280_humidity;BME280_pressure;Samples;Min_cycle;Max_cycle;Signal;HPM_P1;HPM_P2
2022/01/08 00:02:42;;;;;;;33.23;15.03;;;0.60;99.90;;;;;;5037314;28;20224;-76
2022/01/08 00:05:30;;;;;;;34.50;14.97;;;0.60;99.90;;;;;;5038633;28;20692;-75
2022/01/08 00:08:19;;;;;;;34.83;15.00;;;0.60;99.90;;;;;;5039968;28;20227;-75
2022/01/08 00:11:10;;;;;;;37.87;14.83;;;0.60;99.90;;;;;;5053002;28;20874;-75
2022/01/08 00:14:04;;;;;;;33.57;14.60;;;0.60;99.90;;;;;;5043275;28;20224;-75
2022/01/08 00:16:52;;;;;;;35.80;15.23;;;0.60;99.90;;;;;;5049212;28;20221;-74
2022/01/08 00:19:41;;;;;;;34.13;14.53;;;0.50;99.90;;;;;;5052391;28;20764;-74
2022/01/08 00:22:30;;;;;;;34.33;14.03;;;0.50;99.90;;;;;;5056646;28;20231;-71
2022/01/08 00:25:19;;;;;;;34.93;14.93;;;0.60;99.90;;;;;;5053842;28;20231;-73
2022/01/08 00:28:08;;;;;;;33.17;14.00;;;0.60;99.90;;;;;;5052837;28;20247;-76
2022/01/08 00:30:58;;;;;;;31.20;14.00;;;0.70;99.90;;;;;;5038678;28;20363;-72
2022/01/08 00:33:47;;;;;;;38.33;15.50;;;0.60;99.90;;;;;;5039677;28;20689;-73
2022/01/08 00:36:36;;;;;;;33.20;13.53;;;0.60;99.90;;;;;;5050921;28;20221;-74
2022/01/08 00:39:28;;;;;;;35.10;14.77;;;0.60;99.80;;;;;;5039042;28;20695;-73
2022/01/08 00:42:17;;;;;;;33.57;13.60;;;0.60;99.90;;;;;;5041819;28;20228;-69
2022/01/08 00:45:06;;;;;;;32.90;14.27;;;0.60;99.90;;;;;;5042704;28;20224;-73
2022/01/08 00:47:56;;;;;;;37.63;14.50;;;0.60;99.90;;;;;;5057772;28;20292;-75
2022/01/08 00:50:45;;;;;;;32.70;13.63;;;0.50;99.90;;;;;;5050582;28;20213;-73
2022/01/08 00:53:34;;;;;;;31.13;14.53;;;0.50;99.90;;;;;;5050463;28;20731;-73
2022/01/08 00:56:22;;;;;;;31.97;15.00;;;0.50;99.90;;;;;;5053583;28;20674;-74
2022/01/08 00:59:11;;;;;;;33.30;13.73;;;0.50;99.90;;;;;;5052471;28;20225;-73
2022/01/08 01:02:01;;;;;;;29.73;13.50;;;0.50;99.90;;;;;;5050071;28;20237;-72
2022/01/08 01:04:51;;;;;;;30.97;14.90;;;0.40;99.90;;;;;;5054023;28;20230;-73
2022/01/08 01:07:40;;;;;;;28.87;13.70;;;0.50;99.90;;;;;;5038433;28;20226;-74
2022/01/08 01:10:29;;;;;;;29.63;14.33;;;0.40;99.90;;;;;;5047490;28;20651;-73
2022/01/08 01:13:21;;;;;;;32.50;13.57;;;0.40;99.90;;;;;;5048910;28;20227;-73
2022/01/08 01:16:10;;;;;;;32.47;14.10;;;0.40;99.90;;;;;;5050166;28;20220;-74
2022/01/08 01:18:59;;;;;;;31.67;13.10;;;0.30;99.90;;;;;;5036065;28;20235;-74
2022/01/08 01:21:49;;;;;;;30.03;14.43;;;0.30;99.90;;;;;;5055895;28;20220;-75
2022/01/08 01:24:39;;;;;;;29.87;13.80;;;0.40;99.90;;;;;;5038548;28;20223;-75
2022/01/08 01:43:22;;;;;;;29.70;13.63;;;0.30;99.90;;;;;;5050782;28;20219;-73
2022/01/08 01:49:18;;;;;;;33.63;13.63;;;0.20;99.90;;;;;;5039103;28;20223;-73
2022/01/08 01:52:09;;;;;;;28.10;13.17;;;0.20;99.90;;;;;;5049913;28;20250;-74
2022/01/08 01:54:59;;;;;;;28.07;12.33;;;0.20;99.90;;;;;;5049050;28;20317;-74
2022/01/08 01:57:48;;;;;;;32.07;13.83;;;0.20;99.90;;;;;;5040431;28;20771;-74
2022/01/08 02:00:37;;;;;;;29.67;12.33;;;0.20;99.90;;;;;;5053481;28;20231;-75
2022/01/08 02:03:26;;;;;;;30.47;13.30;;;0.20;99.90;;;;;;5052425;28;20219;-74
2022/01/08 02:06:16;;;;;;;30.10;13.30;;;0.20;99.90;;;;;;5040105;28;20645;-76
2022/01/08 02:09:04;;;;;;;31.13;13.23;;;0.10;99.90;;;;;;5041297;28;20230;-74
2022/01/08 02:11:58;;;;;;;29.33;13.67;;;0.20;99.90;;;;;;5040916;28;20224;-73
2022/01/08 02:14:47;;;;;;;31.90;13.00;;;0.10;99.90;;;;;;5043340;28;20262;-73
2022/01/08 02:17:36;;;;;;;32.73;13.47;;;0.10;99.90;;;;;;5053607;28;20242;-75
2022/01/08 02:20:26;;;;;;;32.47;14.47;;;0.00;99.90;;;;;;5038442;28;20915;-76
2022/01/08 02:23:14;;;;;;;32.63;13.07;;;0.10;99.90;;;;;;5043748;28;20791;-75
2022/01/08 02:26:04;;;;;;;34.43;14.10;;;0.10;99.90;;;;;;5040505;28;20214;-75
2022/01/08 02:28:53;;;;;;;39.03;14.03;;;0.00;99.90;;;;;;5054807;28;20227;-75
2022/01/08 02:31:42;;;;;;;32.60;13.33;;;0.00;99.90;;;;;;5042915;28;20222;-76
2022/01/08 02:34:31;;;;;;;40.27;13.83;;;0.00;99.90;;;;;;5055135;28;20223;-75
2022/01/08 02:37:25;;;;;;;31.40;12.83;;;0.00;99.90;;;;;;5052288;28;20220;-75
2022/01/08 02:40:14;;;;;;;31.63;13.77;;;0.00;99.90;;;;;;5051313;28;20301;-73
2022/01/08 02:43:04;;;;;;;30.97;13.83;;;0.00;99.90;;;;;;5040052;28;20233;-73
2022/01/08 02:45:52;;;;;;;31.17;13.57;;;0.00;99.90;;;;;;5050812;28;20223;-73
2022/01/08 02:48:41;;;;;;;31.53;14.10;;;0.00;99.90;;;;;;5057622;28;20225;-74
2022/01/08 02:51:33;;;;;;;33.77;13.60;;;-0.10;99.90;;;;;;5035902;28;20222;-74
2022/01/08 02:54:23;;;;;;;30.13;13.00;;;-0.10;99.90;;;;;;5040855;28;20218;-75
2022/01/08 02:57:12;;;;;;;34.27;14.33;;;-0.10;99.90;;;;;;5023061;28;20223;-75
2022/01/08 03:00:00;;;;;;;27.97;13.37;;;-0.10;99.90;;;;;;5040312;28;20227;-74
2022/01/08 03:02:51;;;;;;;31.00;13.00;;;-0.10;99.90;;;;;;5038394;28;20235;-73
2022/01/08 03:05:40;;;;;;;28.93;13.80;;;-0.10;99.90;;;;;;5024394;28;20737;-72
2022/01/08 03:08:28;;;;;;;34.67;13.80;;;-0.20;99.90;;;;;;5025065;28;20255;-73
2022/01/08 03:11:18;;;;;;;30.77;13.53;;;-0.20;99.90;;;;;;5034636;28;20221;-74
2022/01/08 03:14:08;;;;;;;32.67;14.40;;;-0.20;99.90;;;;;;5041212;28;20235;-74
2022/01/08 03:16:56;;;;;;;33.30;13.80;;;-0.20;99.90;;;;;;5037888;28;20227;-74
2022/01/08 03:19:45;;;;;;;33.87;15.10;;;-0.20;99.90;;;;;;5041940;28;20222;-74
2022/01/08 03:22:34;;;;;;;32.53;13.93;;;-0.30;99.90;;;;;;5035950;28;20236;-74
2022/01/08 03:25:23;;;;;;;36.10;13.97;;;-0.40;99.90;;;;;;5037019;28;20225;-75
2022/01/08 03:28:12;;;;;;;33.50;14.87;;;-0.30;99.90;;;;;;5037787;28;20222;-75
2022/01/08 03:31:01;;;;;;;29.73;13.97;;;-0.30;99.90;;;;;;5036719;28;20229;-76
2022/01/08 03:33:51;;;;;;;36.90;14.30;;;-0.30;99.90;;;;;;5025771;28;20244;-74
2022/01/08 03:36:39;;;;;;;32.77;14.43;;;-0.40;99.90;;;;;;5039742;28;20231;-76
2022/01/08 03:39:28;;;;;;;32.57;14.23;;;-0.40;99.90;;;;;;5037600;28;20217;-74
2022/01/08 03:42:17;;;;;;;37.40;14.70;;;-0.40;99.90;;;;;;5042715;28;20238;-74
2022/01/08 03:45:08;;;;;;;37.40;15.07;;;-0.40;99.90;;;;;;5039635;28;20227;-74
2022/01/08 03:48:18;;;;;;;31.77;15.50;;;-0.40;99.90;;;;;;5019302;28;20365;-75
2022/01/08 03:51:07;;;;;;;35.57;14.67;;;-0.50;99.90;;;;;;5038914;28;20215;-74
2022/01/08 03:53:56;;;;;;;33.67;14.90;;;-0.50;99.90;;;;;;5039433;28;21080;-76
2022/01/08 03:56:44;;;;;;;37.63;15.80;;;-0.50;99.90;;;;;;5049952;28;20838;-74
2022/01/08 03:59:33;;;;;;;39.57;16.23;;;-0.50;99.90;;;;;;5040891;28;20593;-74
2022/01/08 04:02:23;;;;;;;34.67;15.67;;;-0.50;99.90;;;;;;5055692;28;20232;-74
2022/01/08 04:05:12;;;;;;;35.83;15.43;;;-0.60;99.90;;;;;;5055640;28;20221;-74
2022/01/08 04:08:00;;;;;;;31.73;14.00;;;-0.60;99.90;;;;;;5051421;28;20272;-75
2022/01/08 04:10:49;;;;;;;34.20;16.37;;;-0.60;99.90;;;;;;5049933;28;20215;-75
2022/01/08 04:13:40;;;;;;;33.07;15.00;;;-0.70;99.90;;;;;;5054270;28;20646;-74
2022/01/08 04:16:32;;;;;;;35.93;14.97;;;-0.70;99.90;;;;;;5055567;28;20249;-72
2022/01/08 04:19:23;;;;;;;32.73;14.90;;;-0.80;99.90;;;;;;5037998;28;20226;-73
2022/01/08 04:22:13;;;;;;;37.27;15.63;;;-0.70;99.90;;;;;;5053900;28;20222;-74
2022/01/08 04:25:01;;;;;;;38.17;16.03;;;-0.80;99.90;;;;;;5035851;28;20227;-72
2022/01/08 04:27:50;;;;;;;32.67;15.80;;;-0.70;99.90;;;;;;5055516;28;20278;-73
2022/01/08 04:30:39;;;;;;;36.47;16.47;;;-0.90;99.90;;;;;;5052335;28;20226;-74
2022/01/08 04:33:28;;;;;;;38.20;16.40;;;-0.90;99.90;;;;;;5051105;28;20219;-73
2022/01/08 04:36:22;;;;;;;38.67;16.60;;;-0.80;99.90;;;;;;5056932;28;20235;-74
2022/01/08 04:39:10;;;;;;;36.30;16.33;;;-0.90;99.90;;;;;;5051989;28;20218;-73
2022/01/08 04:41:59;;;;;;;37.73;16.10;;;-0.80;99.90;;;;;;5053414;28;20227;-72
2022/01/08 04:44:48;;;;;;;37.47;15.87;;;-0.80;99.90;;;;;;5052122;28;20217;-73
2022/01/08 04:47:36;;;;;;;39.43;16.33;;;-0.90;99.90;;;;;;5058973;28;20239;-72
2022/01/08 04:50:25;;;;;;;35.50;15.97;;;-0.90;99.90;;;;;;5052549;28;20315;-73
2022/01/08 04:53:15;;;;;;;38.10;15.97;;;-0.90;99.90;;;;;;5037939;28;20239;-71
2022/01/08 04:56:04;;;;;;;36.37;15.40;;;-0.90;99.90;;;;;;5049890;28;20220;-72
2022/01/08 04:58:53;;;;;;;39.80;15.83;;;-1.00;99.90;;;;;;5050319;28;20224;-72
2022/01/08 05:01:42;;;;;;;37.40;17.03;;;-0.90;99.90;;;;;;5054309;28;20220;-71
2022/01/08 05:04:31;;;;;;;35.43;15.83;;;-1.00;99.90;;;;;;5036871;28;20244;-71
2022/01/08 05:07:19;;;;;;;36.67;16.07;;;-1.00;99.90;;;;;;5038142;28;20227;-73
2022/01/08 05:10:10;;;;;;;32.03;15.43;;;-1.00;99.90;;;;;;5035103;28;20227;-74
2022/01/08 05:13:03;;;;;;;35.17;16.17;;;-1.10;99.90;;;;;;5051709;28;20218;-75
2022/01/08 05:15:51;;;;;;;35.20;16.40;;;-1.00;99.90;;;;;;5053075;28;20229;-75
2022/01/08 05:18:40;;;;;;;34.53;15.83;;;-1.00;99.90;;;;;;5054653;28;20777;-75
2022/01/08 05:21:32;;;;;;;41.07;16.60;;;-1.10;99.90;;;;;;5038093;28;20209;-74
2022/01/08 05:24:21;;;;;;;43.57;16.93;;;-1.10;99.90;;;;;;5048327;28;20316;-75
2022/01/08 05:27:15;;;;;;;34.40;15.83;;;-1.10;99.90;;;;;;5035843;28;20230;-75
2022/01/08 05:30:05;;;;;;;38.73;17.40;;;-1.10;99.90;;;;;;5047181;28;20218;-75
2022/01/08 05:32:55;;;;;;;38.47;16.60;;;-1.10;99.90;;;;;;5047657;28;20212;-74
2022/01/08 05:35:45;;;;;;;36.53;16.20;;;-1.10;99.90;;;;;;5054379;28;20255;-76
2022/01/08 05:38:33;;;;;;;37.83;15.63;;;-1.20;99.90;;;;;;5052167;28;20225;-75
2022/01/08 05:41:22;;;;;;;38.67;15.83;;;-1.20;99.90;;;;;;5056802;28;20225;-75
2022/01/08 05:44:12;;;;;;;36.30;15.13;;;-1.20;99.90;;;;;;5051392;28;20967;-75
2022/01/08 05:47:01;;;;;;;39.77;16.53;;;-1.20;99.90;;;;;;5054897;28;20217;-75
2022/01/08 05:49:50;;;;;;;40.00;16.63;;;-1.20;99.90;;;;;;5053572;28;20212;-75
2022/01/08 05:52:39;;;;;;;40.17;17.23;;;-1.20;99.90;;;;;;5052229;28;20220;-75
2022/01/08 05:55:28;;;;;;;38.17;16.67;;;-1.20;99.90;;;;;;5039688;28;20223;-75
2022/01/08 05:58:16;;;;;;;36.33;16.07;;;-1.30;99.90;;;;;;5054040;28;20220;-75
2022/01/08 06:01:06;;;;;;;39.03;16.10;;;-1.30;99.90;;;;;;5036553;28;20215;-75
2022/01/08 06:03:55;;;;;;;36.87;16.00;;;-1.30;99.90;;;;;;5054976;28;20221;-74
2022/01/08 06:06:45;;;;;;;40.60;17.67;;;-1.30;99.90;;;;;;5056035;28;20251;-73
2022/01/08 06:09:33;;;;;;;36.00;16.83;;;-1.30;99.90;;;;;;5057501;28;20238;-73
2022/01/08 06:12:22;;;;;;;35.50;15.77;;;-1.30;99.90;;;;;;5045149;28;20643;-75
2022/01/08 06:15:11;;;;;;;41.27;17.37;;;-1.40;99.90;;;;;;5047577;28;20219;-74
2022/01/08 06:18:01;;;;;;;35.30;16.33;;;-1.30;99.90;;;;;;5048766;28;20239;-76
2022/01/08 06:20:50;;;;;;;35.87;16.37;;;-1.30;99.90;;;;;;5055772;28;20219;-76
2022/01/08 06:23:39;;;;;;;39.60;16.40;;;-1.40;99.90;;;;;;5052858;28;20221;-75
2022/01/08 06:26:28;;;;;;;38.10;16.33;;;-1.50;99.90;;;;;;5057805;28;20224;-73
2022/01/08 06:29:16;;;;;;;37.60;17.13;;;-1.50;99.90;;;;;;5041946;28;20220;-74
2022/01/08 06:32:05;;;;;;;40.77;16.43;;;-1.50;99.90;;;;;;5040962;28;20559;-74
2022/01/08 06:35:01;;;;;;;35.63;16.70;;;-1.40;99.90;;;;;;5045112;28;20212;-74
2022/01/08 06:37:49;;;;;;;38.37;15.90;;;-1.40;99.90;;;;;;5054826;28;20232;-75
2022/01/08 06:40:39;;;;;;;37.47;16.50;;;-1.50;99.90;;;;;;5057487;28;20217;-73
2022/01/08 06:43:27;;;;;;;36.13;16.50;;;-1.50;99.90;;;;;;5052543;28;20436;-74
2022/01/08 06:46:16;;;;;;;34.73;16.23;;;-1.50;99.90;;;;;;5055744;28;20784;-73
2022/01/08 06:49:05;;;;;;;31.80;15.33;;;-1.50;99.90;;;;;;5057365;28;20235;-75
2022/01/08 06:51:55;;;;;;;38.83;16.93;;;-1.60;99.90;;;;;;5056509;28;20224;-75
2022/01/08 06:54:43;;;;;;;37.00;15.90;;;-1.50;99.90;;;;;;5044308;28;20228;-75
2022/01/08 06:57:32;;;;;;;31.77;15.17;;;-1.50;99.90;;;;;;5038922;28;20231;-74
2022/01/08 07:00:20;;;;;;;35.10;15.70;;;-1.50;99.90;;;;;;5058008;28;20232;-74
2022/01/08 07:03:10;;;;;;;35.00;15.97;;;-1.50;99.90;;;;;;5055378;28;20247;-73
2022/01/08 07:05:58;;;;;;;38.53;15.87;;;-1.60;99.90;;;;;;5056654;28;20269;-75
2022/01/08 07:08:48;;;;;;;35.97;16.30;;;-1.60;99.90;;;;;;5050930;28;20216;-73
2022/01/08 07:11:37;;;;;;;37.37;16.13;;;-1.50;99.90;;;;;;5045123;28;20220;-75
2022/01/08 07:14:25;;;;;;;33.73;15.30;;;-1.50;99.90;;;;;;5038811;28;20224;-74
2022/01/08 07:17:14;;;;;;;42.37;16.23;;;-1.50;99.90;;;;;;5058167;28;20238;-74
2022/01/08 07:20:03;;;;;;;35.37;15.90;;;-1.50;99.90;;;;;;5038104;28;20377;-74
2022/01/08 07:22:52;;;;;;;35.17;15.67;;;-1.50;99.90;;;;;;5053949;28;20222;-73
2022/01/08 07:25:42;;;;;;;39.53;15.73;;;-1.40;99.90;;;;;;5057146;28;20219;-75
2022/01/08 07:28:30;;;;;;;36.27;16.57;;;-1.50;99.90;;;;;;5052260;28;20220;-76
2022/01/08 07:31:19;;;;;;;35.93;15.67;;;-1.40;99.90;;;;;;5054503;28;20221;-76
2022/01/08 07:34:08;;;;;;;42.03;17.53;;;-1.40;99.90;;;;;;5051229;28;20327;-75
2022/01/08 07:36:56;;;;;;;38.23;16.73;;;-1.40;99.90;;;;;;5037429;28;20569;-75
2022/01/08 07:39:45;;;;;;;36.10;16.50;;;-1.40;99.90;;;;;;5047103;28;20219;-76
2022/01/08 07:42:39;;;;;;;34.00;15.37;;;-1.30;99.90;;;;;;5057483;28;20231;-76
2022/01/08 07:45:27;;;;;;;39.43;17.70;;;-1.30;99.90;;;;;;5035911;28;20231;-75
2022/01/08 07:48:16;;;;;;;34.67;16.43;;;-1.30;99.90;;;;;;5043390;28;20232;-75
2022/01/08 07:51:05;;;;;;;41.33;17.00;;;-1.20;99.90;;;;;;5052025;28;20221;-75
2022/01/08 07:53:53;;;;;;;37.77;16.70;;;-1.20;99.90;;;;;;5055309;28;20219;-75
2022/01/08 07:56:42;;;;;;;41.27;16.70;;;-1.20;99.90;;;;;;5049739;28;20224;-75
2022/01/08 07:59:32;;;;;;;36.37;16.40;;;-1.10;99.90;;;;;;5046654;28;20623;-76
2022/01/08 08:02:20;;;;;;;37.27;16.03;;;-1.10;99.90;;;;;;5046340;28;20215;-76
2022/01/08 08:05:09;;;;;;;34.60;17.07;;;-1.10;99.90;;;;;;5052676;28;20374;-75
2022/01/08 08:07:59;;;;;;;36.30;16.80;;;-1.00;99.90;;;;;;5051610;28;20577;-75
2022/01/08 08:10:50;;;;;;;36.40;15.60;;;-1.00;99.90;;;;;;5042032;28;20229;-75
2022/01/08 08:13:41;;;;;;;34.97;16.07;;;-0.90;99.90;;;;;;5055874;28;20221;-76
2022/01/08 08:16:32;;;;;;;36.00;16.07;;;-0.90;99.90;;;;;;5043587;28;20224;-76
2022/01/08 08:19:20;;;;;;;38.77;15.63;;;-0.90;99.90;;;;;;5023664;28;20224;-74
2022/01/08 08:22:09;;;;;;;36.57;15.97;;;-0.90;99.90;;;;;;5053019;28;20280;-74
2022/01/08 08:24:58;;;;;;;35.97;16.20;;;-0.70;99.90;;;;;;5039447;28;20232;-76
2022/01/08 08:27:47;;;;;;;43.17;16.30;;;-0.60;99.90;;;;;;5052606;28;20711;-75
2022/01/08 08:30:37;;;;;;;35.83;16.23;;;-0.60;99.90;;;;;;5041636;28;20617;-75
2022/01/08 08:33:28;;;;;;;38.70;16.13;;;-0.60;99.90;;;;;;5050193;28;20229;-77
2022/01/08 08:36:16;;;;;;;33.73;15.57;;;-0.50;99.90;;;;;;5041058;28;20226;-76
2022/01/08 08:39:05;;;;;;;39.03;16.03;;;-0.50;99.90;;;;;;5038472;28;20548;-75
2022/01/08 08:41:53;;;;;;;34.37;16.27;;;-0.40;99.90;;;;;;5037481;28;20240;-73
2022/01/08 08:44:42;;;;;;;32.07;15.30;;;-0.50;99.90;;;;;;5037143;28;20238;-73
2022/01/08 08:47:32;;;;;;;37.07;16.90;;;-0.40;99.90;;;;;;5051069;28;20229;-74
2022/01/08 08:50:23;;;;;;;36.27;15.37;;;-0.30;99.90;;;;;;5049186;28;20261;-74
2022/01/08 08:53:12;;;;;;;36.90;16.57;;;-0.40;99.90;;;;;;5041631;28;20717;-75
2022/01/08 08:56:01;;;;;;;37.63;16.17;;;-0.40;99.90;;;;;;5049425;28;20221;-73
2022/01/08 08:58:50;;;;;;;37.80;16.23;;;-0.40;99.90;;;;;;5056493;28;20790;-73
2022/01/08 09:01:39;;;;;;;31.33;15.17;;;-0.30;99.90;;;;;;5056718;28;20221;-73
2022/01/08 09:04:28;;;;;;;33.83;15.30;;;-0.20;99.90;;;;;;5052340;28;20229;-72
2022/01/08 09:07:18;;;;;;;37.13;16.43;;;-0.10;99.90;;;;;;5050611;28;20225;-72
2022/01/08 09:10:10;;;;;;;33.43;15.53;;;-0.10;99.90;;;;;;5053146;28;20312;-72
2022/01/08 09:12:58;;;;;;;36.13;16.57;;;-0.10;99.90;;;;;;5051902;28;20227;-75
2022/01/08 09:15:47;;;;;;;43.00;16.50;;;-0.10;99.90;;;;;;5054361;28;20224;-72
2022/01/08 09:18:36;;;;;;;32.80;16.10;;;-0.10;99.90;;;;;;5040379;28;20315;-73
2022/01/08 09:21:25;;;;;;;35.33;15.47;;;0.00;99.90;;;;;;5053373;28;20220;-71
2022/01/08 09:24:18;;;;;;;37.97;16.20;;;0.10;99.90;;;;;;5053279;28;20228;-73
2022/01/08 09:27:07;;;;;;;34.67;15.97;;;0.10;99.90;;;;;;5052110;28;20710;-73
2022/01/08 09:29:56;;;;;;;38.23;16.93;;;0.20;99.90;;;;;;5038846;28;20547;-73
2022/01/08 09:32:45;;;;;;;35.93;16.03;;;0.20;99.90;;;;;;5055233;28;20234;-73
2022/01/08 09:35:34;;;;;;;35.07;16.53;;;0.20;99.90;;;;;;5052824;28;20230;-74
2022/01/08 09:38:23;;;;;;;39.30;17.47;;;0.20;99.90;;;;;;5052200;28;20501;-74
2022/01/08 09:41:13;;;;;;;34.63;15.37;;;0.20;99.90;;;;;;5040587;28;20232;-74
2022/01/08 09:44:01;;;;;;;35.77;16.50;;;0.30;99.90;;;;;;5052735;28;20225;-74
2022/01/08 09:46:50;;;;;;;35.90;17.40;;;0.40;99.90;;;;;;5043007;28;20227;-74
2022/01/08 09:49:39;;;;;;;40.67;16.83;;;0.50;99.90;;;;;;5053623;28;20245;-73
2022/01/08 09:52:30;;;;;;;38.17;17.17;;;0.50;99.90;;;;;;5042578;28;20601;-72
2022/01/08 09:55:18;;;;;;;37.03;15.83;;;0.50;99.90;;;;;;5054965;28;20222;-75
2022/01/08 09:58:09;;;;;;;40.33;18.07;;;0.40;99.90;;;;;;5055070;28;20245;-73
2022/01/08 10:00:58;;;;;;;36.07;17.97;;;0.50;99.90;;;;;;5045768;28;20226;-73
2022/01/08 10:03:46;;;;;;;36.83;16.60;;;0.50;99.90;;;;;;5054605;28;20335;-71
2022/01/08 10:06:36;;;;;;;33.73;17.00;;;0.50;99.90;;;;;;5050820;28;20369;-73
2022/01/08 10:09:25;;;;;;;38.67;16.50;;;0.40;99.90;;;;;;5053251;28;20213;-74
2022/01/08 10:12:14;;;;;;;39.00;17.03;;;0.50;99.90;;;;;;5045308;28;20720;-73
2022/01/08 10:18:10;;;;;;;40.53;18.00;;;0.70;99.90;;;;;;5053676;28;20518;-74
2022/01/08 10:21:00;;;;;;;33.43;17.47;;;0.70;99.90;;;;;;5046995;28;20223;-71
2022/01/08 10:23:51;;;;;;;34.57;17.27;;;0.70;99.90;;;;;;5054745;28;20226;-72
2022/01/08 10:26:42;;;;;;;37.53;17.17;;;0.70;99.90;;;;;;5042694;28;20230;-69
2022/01/08 10:29:31;;;;;;;38.20;18.13;;;0.70;99.90;;;;;;5058162;28;20218;-71
2022/01/08 10:32:28;;;;;;;33.17;16.77;;;0.80;99.90;;;;;;5055097;28;20716;-71
2022/01/08 10:35:17;;;;;;;32.70;16.03;;;0.90;99.90;;;;;;5056615;28;20226;-73
2022/01/08 10:38:05;;;;;;;37.77;17.57;;;0.90;99.90;;;;;;5056791;28;20706;-75
2022/01/08 10:40:54;;;;;;;39.20;17.20;;;0.90;99.90;;;;;;5038479;28;20237;-75
2022/01/08 10:43:46;;;;;;;34.87;17.30;;;0.80;99.90;;;;;;5055431;28;20222;-72
2022/01/08 10:46:40;;;;;;;39.63;17.27;;;0.90;99.90;;;;;;5056400;28;20235;-73
2022/01/08 10:49:32;;;;;;;35.80;18.07;;;0.80;99.90;;;;;;5042837;28;20228;-73
2022/01/08 10:52:21;;;;;;;42.17;17.43;;;0.80;99.90;;;;;;5043599;28;20330;-72
2022/01/08 10:55:10;;;;;;;33.93;16.27;;;0.80;99.90;;;;;;5057466;28;20234;-69
2022/01/08 10:57:59;;;;;;;40.90;17.37;;;0.80;99.90;;;;;;5043249;28;20223;-67
2022/01/08 11:00:47;;;;;;;36.67;16.73;;;0.80;99.90;;;;;;5057398;28;20220;-69
2022/01/08 11:03:40;;;;;;;38.70;17.00;;;0.90;99.90;;;;;;5054205;28;20235;-67
2022/01/08 11:06:30;;;;;;;36.53;17.70;;;0.90;99.90;;;;;;5041207;28;20252;-68
2022/01/08 11:09:19;;;;;;;34.80;17.50;;;0.90;99.90;;;;;;5054221;28;20245;-68
2022/01/08 11:12:13;;;;;;;35.53;17.83;;;0.90;99.90;;;;;;5053044;28;20770;-69
2022/01/08 11:15:35;;;;;;;31.03;16.40;;;1.00;99.90;;;;;;5056342;28;20216;-68
2022/01/08 11:18:24;;;;;;;39.17;16.67;;;1.10;99.90;;;;;;5044405;28;20679;-68
2022/01/08 11:21:15;;;;;;;41.13;17.97;;;1.20;99.90;;;;;;5057110;28;20261;-68
2022/01/08 11:24:06;;;;;;;37.17;17.50;;;1.20;99.90;;;;;;5060115;28;20630;-68
2022/01/08 11:26:57;;;;;;;42.37;17.17;;;1.20;99.90;;;;;;5055740;28;20224;-67
2022/01/08 11:29:49;;;;;;;38.93;17.60;;;1.20;99.90;;;;;;5045188;28;20228;-70
2022/01/08 11:32:39;;;;;;;37.00;18.17;;;1.20;99.90;;;;;;5055909;28;20243;-69
2022/01/08 11:35:49;;;;;;;37.07;17.80;;;1.30;99.90;;;;;;5058347;28;20262;-69
2022/01/08 11:38:41;;;;;;;33.93;17.53;;;1.30;99.90;;;;;;5053373;28;20227;-69
2022/01/08 11:41:32;;;;;;;38.57;18.13;;;1.30;99.90;;;;;;5055951;28;20216;-69
2022/01/08 11:44:21;;;;;;;39.85;18.77;;;1.30;99.90;;;;;;5039034;28;20450;-68
2022/01/08 11:47:10;;;;;;;33.93;16.60;;;1.40;99.90;;;;;;5054683;28;20236;-68
2022/01/08 11:50:00;;;;;;;38.70;17.83;;;1.40;99.90;;;;;;5053533;28;20224;-69
2022/01/08 11:53:12;;;;;;;38.83;17.93;;;1.40;99.90;;;;;;5052289;28;20879;-69
2022/01/08 11:56:03;;;;;;;37.97;17.60;;;1.50;99.90;;;;;;5053117;28;20259;-68
2022/01/08 11:59:08;;;;;;;37.60;16.97;;;1.50;99.90;;;;;;5058076;28;20843;-70
2022/01/08 12:02:07;;;;;;;32.27;16.13;;;1.30;99.90;;;;;;5041345;28;20230;-68
2022/01/08 12:04:56;;;;;;;38.40;17.77;;;1.30;99.90;;;;;;5053545;28;20235;-68
2022/01/08 12:07:47;;;;;;;32.57;17.53;;;1.30;99.90;;;;;;5055072;28;20227;-69
2022/01/08 12:10:56;;;;;;;38.10;17.57;;;1.40;99.90;;;;;;5056348;28;20665;-68
2022/01/08 12:13:46;;;;;;;32.43;17.20;;;1.40;99.90;;;;;;5058413;28;20243;-68
2022/01/08 12:16:37;;;;;;;37.93;18.37;;;1.30;99.90;;;;;;5056456;28;20236;-69
2022/01/08 12:19:32;;;;;;;37.40;16.50;;;1.30;99.90;;;;;;5057875;28;20226;-69
2022/01/08 12:22:31;;;;;;;35.77;17.20;;;1.20;99.90;;;;;;5044541;28;20223;-68
2022/01/08 12:25:41;;;;;;;37.30;17.23;;;1.30;99.90;;;;;;5054353;28;20231;-69
2022/01/08 12:28:54;;;;;;;33.60;17.13;;;1.20;99.90;;;;;;5057844;28;20219;-69
2022/01/08 12:31:47;;;;;;;41.83;18.67;;;1.20;99.90;;;;;;5055139;28;20220;-69
2022/01/08 12:34:47;;;;;;;34.67;17.10;;;1.30;99.90;;;;;;5057477;28;20216;-67
2022/01/08 12:37:38;;;;;;;34.60;17.40;;;1.30;99.90;;;;;;5056035;28;20220;-70
2022/01/08 12:40:36;;;;;;;35.90;16.70;;;1.30;99.90;;;;;;5043718;28;20307;-66
2022/01/08 12:43:34;;;;;;;33.63;16.13;;;1.30;99.90;;;;;;5052539;28;20223;-71
2022/01/08 12:46:24;;;;;;;38.63;17.67;;;1.40;99.90;;;;;;5054563;28;20416;-70
2022/01/08 12:49:15;;;;;;;34.53;17.20;;;1.40;99.90;;;;;;5053861;28;20232;-67
2022/01/08 12:52:09;;;;;;;34.90;16.97;;;1.40;99.90;;;;;;5052955;28;20220;-74
2022/01/08 12:55:12;;;;;;;33.20;17.03;;;1.40;99.90;;;;;;5054019;28;20233;-73
2022/01/08 12:58:02;;;;;;;34.53;17.27;;;1.40;99.90;;;;;;5035940;28;20247;-72
2022/01/08 13:00:56;;;;;;;37.03;18.20;;;1.40;99.90;;;;;;5051226;28;20222;-74
2022/01/08 13:03:46;;;;;;;37.60;17.57;;;1.40;99.90;;;;;;5041156;28;20238;-73
2022/01/08 13:06:37;;;;;;;39.57;18.43;;;1.50;99.90;;;;;;5041677;28;20236;-71
2022/01/08 13:09:25;;;;;;;37.60;18.43;;;1.50;99.90;;;;;;5055796;28;22160;-73
2022/01/08 13:12:23;;;;;;;38.07;17.70;;;1.50;99.90;;;;;;5049557;28;20302;-72
2022/01/08 13:15:12;;;;;;;41.70;17.43;;;1.50;99.90;;;;;;5039683;28;20220;-74
2022/01/08 13:18:16;;;;;;;33.83;18.00;;;1.50;99.90;;;;;;5042643;28;20221;-72
2022/01/08 13:21:07;;;;;;;37.30;18.60;;;1.50;99.90;;;;;;5039183;28;20231;-74
2022/01/08 13:23:59;;;;;;;35.90;17.60;;;1.50;99.90;;;;;;5052073;28;20227;-72
2022/01/08 13:26:51;;;;;;;35.00;17.43;;;1.50;99.90;;;;;;5054321;28;20224;-72
2022/01/08 13:29:41;;;;;;;36.67;17.73;;;1.50;99.90;;;;;;5038702;28;20224;-72
2022/01/08 13:32:30;;;;;;;42.47;17.33;;;1.50;99.90;;;;;;5053729;28;20224;-73
2022/01/08 13:35:19;;;;;;;36.53;18.23;;;1.60;99.90;;;;;;5050894;28;20770;-73
2022/01/08 13:38:08;;;;;;;34.57;17.93;;;1.50;99.90;;;;;;5036207;28;20213;-73
2022/01/08 13:41:07;;;;;;;35.83;17.43;;;1.60;99.90;;;;;;5036658;28;20223;-73
2022/01/08 13:44:01;;;;;;;37.03;17.37;;;1.50;99.90;;;;;;5053678;28;20219;-71
2022/01/08 13:46:50;;;;;;;39.10;18.50;;;1.60;99.90;;;;;;5054796;28;21265;-72
2022/01/08 13:49:41;;;;;;;37.53;17.40;;;1.60;99.90;;;;;;5054706;28;20228;-69
2022/01/08 13:52:39;;;;;;;33.53;18.23;;;1.50;99.90;;;;;;5055473;28;20226;-71
2022/01/08 13:55:32;;;;;;;37.77;18.67;;;1.60;99.90;;;;;;5056692;28;20219;-67
2022/01/08 13:58:28;;;;;;;34.83;17.33;;;1.60;99.90;;;;;;5043317;28;20256;-71
2022/01/08 14:01:17;;;;;;;34.97;17.30;;;1.60;99.90;;;;;;5053799;28;20827;-70
2022/01/08 14:04:06;;;;;;;38.37;17.97;;;1.50;99.90;;;;;;5056806;28;20231;-71
2022/01/08 14:06:57;;;;;;;33.47;17.60;;;1.50;99.90;;;;;;5052000;28;20237;-72
2022/01/08 14:09:58;;;;;;;35.50;17.30;;;1.50;99.90;;;;;;5056263;28;20227;-69
2022/01/08 14:13:05;;;;;;;38.30;18.47;;;1.50;99.90;;;;;;5055371;28;21241;-68
2022/01/08 14:16:01;;;;;;;36.13;17.00;;;1.50;99.90;;;;;;5057278;28;20231;-70
2022/01/08 14:18:51;;;;;;;35.17;16.77;;;1.50;99.90;;;;;;5057012;28;20224;-70
2022/01/08 14:21:41;;;;;;;33.97;17.43;;;1.60;99.90;;;;;;5055008;28;20220;-69
2022/01/08 14:24:35;;;;;;;36.90;19.50;;;1.60;99.90;;;;;;5035735;28;20217;-69
2022/01/08 14:27:24;;;;;;;33.33;18.27;;;1.60;99.90;;;;;;5047083;28;21945;-69
2022/01/08 14:30:14;;;;;;;36.20;18.13;;;1.60;99.90;;;;;;5050424;28;20244;-68
2022/01/08 14:33:05;;;;;;;39.03;18.40;;;1.60;99.90;;;;;;5040086;28;20231;-68
2022/01/08 14:36:00;;;;;;;35.47;18.63;;;1.60;99.90;;;;;;5054146;28;20219;-70
2022/01/08 14:38:49;;;;;;;33.23;18.17;;;1.60;99.90;;;;;;5049266;28;20221;-69
2022/01/08 14:41:39;;;;;;;40.33;19.03;;;1.60;99.90;;;;;;5040890;28;20228;-68
2022/01/08 14:44:29;;;;;;;38.87;18.90;;;1.60;99.90;;;;;;5054357;28;20221;-67
2022/01/08 14:47:34;;;;;;;36.77;18.83;;;1.60;99.90;;;;;;5054745;28;20224;-68
2022/01/08 14:50:27;;;;;;;37.80;17.83;;;1.60;99.90;;;;;;5055427;28;20212;-68
2022/01/08 14:53:17;;;;;;;39.50;18.50;;;1.60;99.90;;;;;;5053601;28;20236;-70
2022/01/08 14:56:07;;;;;;;41.03;19.00;;;1.60;99.90;;;;;;5041744;28;20605;-68